DAL331 KLAX-KBOS
Flight info
| Callsign | DAL331 |
|---|---|
| Flight time | N/A |
| Altitude | 39000 |
| Route | DOTSS2 CLEEE PKE J96 CIM/N0486F410 SLN IRK JOT J146 GIJ J554 JHW Q82 PONCT JFUND2 |
| Aircraft | A359/H-SDE2E3GHIJ3J4J5LM1ORWXY/LB1D1 |
Departure
| Time | 2026-04-24 06:00 |
|---|---|
| Airport | Los Angeles International Airport (KLAX) |
Arrival
| Time | N/A |
|---|---|
| Airport | Boston Logan International Airport (KBOS) |
| Time | Latitude | Longitude | Altitude | Speed | Heading |
|---|---|---|---|---|---|
| 2026-04-24 05:41 | 33.94545 | -118.40981 | 128 ft | 0 kts | 263° |
| 2026-04-24 05:49 | 33.94545 | -118.40980 | 128 ft | 1 kts | 263° |
| 2026-04-24 05:50 | 33.94548 | -118.40962 | 129 ft | 3 kts | 253° |
| 2026-04-24 05:50 | 33.94553 | -118.40939 | 132 ft | 3 kts | 262° |
| 2026-04-24 05:50 | 33.94554 | -118.40917 | 132 ft | 3 kts | 282° |
| 2026-04-24 05:50 | 33.94547 | -118.40897 | 132 ft | 3 kts | 323° |
| 2026-04-24 05:51 | 33.94531 | -118.40888 | 128 ft | 2 kts | 351° |
| 2026-04-24 05:51 | 33.94527 | -118.40887 | 132 ft | 0 kts | 353° |
| 2026-04-24 05:54 | 33.94550 | -118.40890 | 124 ft | 7 kts | 352° |
| 2026-04-24 05:54 | 33.94607 | -118.40899 | 128 ft | 10 kts | 353° |
| 2026-04-24 05:55 | 33.94681 | -118.40910 | 129 ft | 12 kts | 353° |
| 2026-04-24 05:55 | 33.94767 | -118.40894 | 128 ft | 11 kts | 12° |
| 2026-04-24 05:55 | 33.94834 | -118.40847 | 127 ft | 12 kts | 61° |
| 2026-04-24 05:55 | 33.94851 | -118.40741 | 132 ft | 14 kts | 82° |
| 2026-04-24 05:56 | 33.94864 | -118.40617 | 125 ft | 16 kts | 83° |
| 2026-04-24 05:56 | 33.94878 | -118.40476 | 124 ft | 18 kts | 83° |
| 2026-04-24 05:56 | 33.94894 | -118.40320 | 132 ft | 19 kts | 83° |
| 2026-04-24 05:56 | 33.94911 | -118.40154 | 135 ft | 21 kts | 83° |
| 2026-04-24 05:57 | 33.94920 | -118.40067 | 127 ft | 5 kts | 83° |
| 2026-04-24 05:57 | 33.94925 | -118.40015 | 132 ft | 8 kts | 83° |
| 2026-04-24 05:57 | 33.94940 | -118.39949 | 127 ft | 6 kts | 58° |
| 2026-04-24 05:57 | 33.94942 | -118.39947 | 128 ft | 0 kts | 57° |
| 2026-04-24 05:58 | 33.94969 | -118.39922 | 127 ft | 9 kts | 26° |
| 2026-04-24 05:58 | 33.95025 | -118.39936 | 126 ft | 9 kts | 314° |
| 2026-04-24 05:58 | 33.95035 | -118.40011 | 129 ft | 10 kts | 268° |
| 2026-04-24 05:59 | 33.95027 | -118.40102 | 132 ft | 12 kts | 263° |
| 2026-04-24 05:59 | 33.95003 | -118.40328 | 132 ft | 58 kts | 263° |
| 2026-04-24 05:59 | 33.94924 | -118.41082 | 132 ft | 121 kts | 263° |
| 2026-04-24 05:59 | 33.94794 | -118.42308 | 194 ft | 169 kts | 261° |
| 2026-04-24 06:00 | 33.94636 | -118.43700 | 965 ft | 161 kts | 263° |
| 2026-04-24 06:00 | 33.94563 | -118.45069 | 1525 ft | 174 kts | 268° |
| 2026-04-24 06:00 | 33.94505 | -118.46608 | 1742 ft | 195 kts | 267° |
| 2026-04-24 06:00 | 33.94363 | -118.48333 | 1942 ft | 218 kts | 264° |
| 2026-04-24 06:01 | 33.94211 | -118.50239 | 2201 ft | 238 kts | 266° |
| 2026-04-24 06:01 | 33.94082 | -118.52309 | 2493 ft | 256 kts | 266° |
| 2026-04-24 06:01 | 33.93937 | -118.54448 | 3169 ft | 256 kts | 265° |
| 2026-04-24 06:01 | 33.93777 | -118.56567 | 3804 ft | 258 kts | 265° |
| 2026-04-24 06:02 | 33.93608 | -118.58762 | 4414 ft | 262 kts | 265° |
| 2026-04-24 06:02 | 33.93283 | -118.60907 | 4995 ft | 266 kts | 251° |
| 2026-04-24 06:02 | 33.92315 | -118.62797 | 5548 ft | 270 kts | 225° |
| 2026-04-24 06:02 | 33.90703 | -118.63961 | 6108 ft | 274 kts | 197° |
| 2026-04-24 06:03 | 33.88809 | -118.64186 | 6675 ft | 276 kts | 178° |
| 2026-04-24 06:03 | 33.86886 | -118.64044 | 7261 ft | 278 kts | 176° |
| 2026-04-24 06:03 | 33.84950 | -118.63809 | 7816 ft | 282 kts | 171° |
| 2026-04-24 06:03 | 33.83097 | -118.62993 | 8368 ft | 287 kts | 152° |
| 2026-04-24 06:04 | 33.81406 | -118.61695 | 8937 ft | 291 kts | 147° |
| 2026-04-24 06:04 | 33.79732 | -118.60300 | 9496 ft | 295 kts | 147° |
| 2026-04-24 06:04 | 33.78056 | -118.58903 | 10039 ft | 299 kts | 148° |
| 2026-04-24 06:04 | 33.76306 | -118.57461 | 10337 ft | 311 kts | 148° |
| 2026-04-24 06:05 | 33.74474 | -118.55964 | 10557 ft | 325 kts | 148° |
| 2026-04-24 06:05 | 33.72560 | -118.54405 | 10786 ft | 338 kts | 148° |
| 2026-04-24 06:05 | 33.70646 | -118.52662 | 10987 ft | 354 kts | 139° |
| 2026-04-24 06:05 | 33.69174 | -118.50224 | 11172 ft | 371 kts | 117° |
| 2026-04-24 06:06 | 33.68209 | -118.47303 | 11390 ft | 382 kts | 110° |
| 2026-04-24 06:06 | 33.67331 | -118.44249 | 11674 ft | 389 kts | 110° |
| 2026-04-24 06:06 | 33.66445 | -118.41158 | 12067 ft | 394 kts | 110° |
| 2026-04-24 06:06 | 33.65544 | -118.38060 | 12442 ft | 398 kts | 110° |
| 2026-04-24 06:07 | 33.64705 | -118.34883 | 12799 ft | 403 kts | 103° |
| 2026-04-24 06:07 | 33.64415 | -118.31524 | 13172 ft | 406 kts | 91° |
| 2026-04-24 06:07 | 33.64406 | -118.28110 | 13555 ft | 410 kts | 89° |
| 2026-04-24 06:07 | 33.64430 | -118.24678 | 13922 ft | 413 kts | 89° |
| 2026-04-24 06:08 | 33.64447 | -118.21223 | 14264 ft | 415 kts | 89° |
| 2026-04-24 06:08 | 33.64457 | -118.17776 | 14601 ft | 418 kts | 90° |
| 2026-04-24 06:08 | 33.64462 | -118.14267 | 14948 ft | 421 kts | 90° |
| 2026-04-24 06:08 | 33.64464 | -118.10746 | 15328 ft | 423 kts | 90° |
| 2026-04-24 06:09 | 33.64463 | -118.07209 | 15706 ft | 425 kts | 90° |
| 2026-04-24 06:09 | 33.64460 | -118.03643 | 16078 ft | 428 kts | 90° |
| 2026-04-24 06:09 | 33.64456 | -118.00060 | 16440 ft | 431 kts | 90° |
| 2026-04-24 06:09 | 33.64451 | -117.96454 | 16805 ft | 433 kts | 90° |
| 2026-04-24 06:10 | 33.64445 | -117.92826 | 17173 ft | 436 kts | 90° |
| 2026-04-24 06:10 | 33.64438 | -117.89175 | 17555 ft | 438 kts | 90° |
| 2026-04-24 06:10 | 33.64429 | -117.85512 | 17915 ft | 441 kts | 90° |
| 2026-04-24 06:11 | 33.64708 | -117.78130 | 18576 ft | 446 kts | 79° |
| 2026-04-24 06:11 | 33.65352 | -117.74490 | 18891 ft | 447 kts | 76° |
| 2026-04-24 06:11 | 33.66058 | -117.70878 | 19209 ft | 449 kts | 76° |
| 2026-04-24 06:11 | 33.66778 | -117.67202 | 19526 ft | 452 kts | 76° |
| 2026-04-24 06:12 | 33.67493 | -117.63522 | 19825 ft | 454 kts | 76° |
| 2026-04-24 06:12 | 33.68208 | -117.59814 | 20135 ft | 456 kts | 76° |
| 2026-04-24 06:12 | 33.68925 | -117.56082 | 20448 ft | 459 kts | 76° |
| 2026-04-24 06:12 | 33.69637 | -117.52369 | 20754 ft | 461 kts | 76° |
| 2026-04-24 06:13 | 33.70360 | -117.48585 | 21068 ft | 463 kts | 76° |
| 2026-04-24 06:13 | 33.71080 | -117.44806 | 21371 ft | 464 kts | 76° |
| 2026-04-24 06:13 | 33.71803 | -117.41009 | 21635 ft | 467 kts | 76° |
| 2026-04-24 06:13 | 33.72519 | -117.37240 | 21892 ft | 470 kts | 76° |
| 2026-04-24 06:14 | 33.73246 | -117.33402 | 22175 ft | 472 kts | 76° |
| 2026-04-24 06:14 | 33.73975 | -117.29554 | 22462 ft | 473 kts | 76° |
| 2026-04-24 06:14 | 33.74692 | -117.25688 | 22723 ft | 476 kts | 78° |
| 2026-04-24 06:14 | 33.75076 | -117.21724 | 22981 ft | 479 kts | 89° |
| 2026-04-24 06:15 | 33.75047 | -117.17704 | 23259 ft | 480 kts | 91° |
| 2026-04-24 06:15 | 33.74963 | -117.13688 | 23599 ft | 482 kts | 91° |
| 2026-04-24 06:15 | 33.74876 | -117.09702 | 23810 ft | 484 kts | 91° |
| 2026-04-24 06:15 | 33.74786 | -117.05595 | 24029 ft | 486 kts | 91° |
| 2026-04-24 06:16 | 33.74700 | -117.01578 | 24241 ft | 488 kts | 91° |
| 2026-04-24 06:16 | 33.74611 | -116.97477 | 24450 ft | 490 kts | 91° |
| 2026-04-24 06:16 | 33.74524 | -116.93364 | 24664 ft | 492 kts | 91° |
| 2026-04-24 06:16 | 33.74433 | -116.89260 | 24889 ft | 493 kts | 92° |
| 2026-04-24 06:17 | 33.74340 | -116.85168 | 25106 ft | 495 kts | 91° |
| 2026-04-24 06:17 | 33.74244 | -116.80979 | 25331 ft | 496 kts | 91° |
| 2026-04-24 06:17 | 33.74150 | -116.76889 | 25560 ft | 498 kts | 91° |
| 2026-04-24 06:17 | 33.74050 | -116.72658 | 25775 ft | 500 kts | 92° |
| 2026-04-24 06:18 | 33.73953 | -116.68536 | 26001 ft | 502 kts | 92° |
| 2026-04-24 06:18 | 33.73852 | -116.64343 | 26241 ft | 503 kts | 92° |
| 2026-04-24 06:18 | 33.73750 | -116.60125 | 26383 ft | 505 kts | 92° |
| 2026-04-24 06:18 | 33.73645 | -116.55897 | 26584 ft | 507 kts | 92° |
| 2026-04-24 06:19 | 33.73539 | -116.51655 | 26814 ft | 509 kts | 92° |
| 2026-04-24 06:19 | 33.73430 | -116.47386 | 27019 ft | 511 kts | 92° |
| 2026-04-24 06:19 | 33.73320 | -116.43114 | 27264 ft | 513 kts | 92° |
| 2026-04-24 06:19 | 33.73208 | -116.38824 | 27517 ft | 515 kts | 92° |
| 2026-04-24 06:20 | 33.73094 | -116.34502 | 27744 ft | 517 kts | 92° |
| 2026-04-24 06:20 | 33.72979 | -116.30234 | 27986 ft | 519 kts | 92° |
| 2026-04-24 06:20 | 33.72861 | -116.25890 | 28258 ft | 521 kts | 92° |
| 2026-04-24 06:20 | 33.72742 | -116.21539 | 28595 ft | 521 kts | 92° |